Nezperce, ID

8:19 AM PST on December 27, 2014 (GMT -0800)
Lowell | Change Station
CLOSE
Current Station
Airport
Location: Lowell,
Elevation: 1480 ft
Nearby Weather Stations
Active Advisory: Winter Storm Warning

Elev 1480 ft 46.14 °N, 115.60 °W | Updated 27 minutes ago

Snow
Snow
32 °F
Feels Like 32 °F
N
0
Wind Variable Wind from North
Gusts 8 mph

Today
High -- | Low -- °F
--% Chance of Precip.
Yesterday
High -- | Low -- °F
Precip. -- in
7:27 AM 4:05 PM
Waxing Crescent, 38% visible
Pressure 30.36 in
Visibility -9999.0 miles
Clouds
Dew Point 30 °F
Humidity 92%
Rainfall 0.00 in
Snow Depth Not available.
UV Not available.
Pollen .10 out of 12
Air Quality Not available.
Flu Activity Not available.
METAR KP69 271552Z AUTO 00000KT 00/M01 A3029 RMK AO1 SLP281 T00001011

More Conditions Fewer Conditions

Pressure 30.36 in
Visibility -9999.0 miles
Clouds
Dew Point 30 °F
Humidity 92%
Rainfall 0.00 in
Snow Depth Not available.
UV Not available.
Pollen .10 out of 12
Air Quality Not available.
Flu Activity Not available.
METAR KP69 271552Z AUTO 00000KT 00/M01 A3029 RMK AO1 SLP281 T00001011

More Conditions Fewer Conditions

10-Day Weather Forecast

Almanac

Astronomy

Dec. 27, 2014 Rise Set
Actual Time
Civil Twilight
Nautical Twilight
Astronomical Twilight
Moon
Length of Visible Light
Length of Day
Tomorrow will be .
, % of the Moon is Illuminated

Today's Extremes

State Highs State Lows

Community

WunderPhotos

Upload Photos

1,780,943 photos uploaded!

WunderBlogs® & News

Nearby

Air Quality

  Air Quality AQ Index Pollutant
Not available.

Snow Depth

Station Depth Elevation

Earthquake Activity

City Distance Mag. Time & Date
Minimum magnitude displayed is 2.5.

Coastal Water Temperatures

Place Temperature

Nearby Weather Stations